LPPD

João Paulo II Airport

Ponta Delgada, Portugal
TAF LPPD 132300Z 1400/1424 21012KT 8000 SCT005 BKN010 TEMPO 1400/1410 1500 DZRA BR SCT001 BKN003 BECMG 1402/1406 21018KT PROB30 TEMPO 1406/1421 21025G38KT BECMG 1410/1412 9999 SCT012 BECMG 1414/1416 5000 -RADZ BR SCT006 BKN012 TEMPO 1416/1424 3000 RA SCT002 BKN005
Issued Valid From Valid To
Dec-13 @ 23:00 UTC
(5 hours ago)
Dec-14 @ 00:00 UTC
(4 hours ago)
Dec-15 @ 00:00 UTC
(in 20 hours)
Expired Click to View Dec-14 @ 00:00 to Dec-14 @ 02:00
TAF LPPD 132300Z 1400/1424 21012KT 8000 SCT005 BKN010
Wind Visibility Clouds
210° at 12 knots 7,998 meters
  • Scattered at 500' AGL
  • Broken at 1,000' AGL
Temporary Dec-14 @ 00:00 to Dec-14 @ 10:00
TEMPO 1400/1410 1500 DZRA BR SCT001 BKN003
Visibility Clouds Conditions
1,497 meters
  • Scattered at 100' AGL
  • Broken at 300' AGL
  • Drizzle
  • Rain
  • Mist
Becoming Dec-14 @ 02:00 to Dec-14 @ 10:00
BECMG 1402/1406 21018KT
Wind Visibility Clouds
210° at 18 knots 7,998 meters
  • Scattered at 500' AGL
  • Broken at 1,000' AGL
Temporary  (Probability 30%) Dec-14 @ 06:00 to Dec-14 @ 21:00
PROB30 TEMPO 1406/1421 21025G38KT
Wind
210° at 25 knots
 Gusting to 38 knots
Becoming Dec-14 @ 10:00 to Dec-14 @ 14:00
BECMG 1410/1412 9999 SCT012
Wind Visibility Clouds
210° at 18 knots 10,000+ meters
  • Scattered at 1,200' AGL
Becoming Dec-14 @ 14:00 to Dec-15 @ 00:00
BECMG 1414/1416 5000 -RADZ BR SCT006 BKN012
Wind Visibility Clouds Conditions
210° at 18 knots 5,005 meters
  • Scattered at 600' AGL
  • Broken at 1,200' AGL
  • Light Rain
  • Light Drizzle
  • Mist
Temporary Dec-14 @ 16:00 to Dec-15 @ 00:00
TEMPO 1416/1424 3000 RA SCT002 BKN005
Visibility Clouds Conditions
2,993 meters
  • Scattered at 200' AGL
  • Broken at 500' AGL
  • Rain
TAF LPPD 132300Z 1400/1424 21012KT 8000 SCT005 BKN010 TEMPO 1400/1410 1500 DZRA BR SCT001 BKN003 BECMG 1402/1406 21018KT PROB30 TEMPO 1406/1421 21025G38KT BECMG 1410/1412 9999 SCT012 BECMG 1414/1416 5000 -RADZ BR SCT006 BKN012 TEMPO 1416/1424 3000 RA SCT002 BKN005
Issued Dec-13 @ 23:00 UTC
(5 hours ago)
Valid From Dec-14 @ 00:00 UTC
(4 hours ago)
Valid To Dec-15 @ 00:00 UTC
(in 20 hours)
Dec-14 @ 00:00 - Dec-14 @ 02:00
Wind Visibility
210° at 12 knots 7,998 meters
Clouds
  • Scattered at 500' AGL
  • Broken at 1,000' AGL
Temporary Dec-14 @ 00:00 - Dec-14 @ 10:00
Clouds
  • Scattered at 100' AGL
  • Broken at 300' AGL
Conditions
  • Drizzle
  • Rain
  • Mist
Becoming Dec-14 @ 02:00 - Dec-14 @ 10:00
Wind Visibility
210° at 18 knots 7,998 meters
Clouds
  • Scattered at 500' AGL
  • Broken at 1,000' AGL
Probability 30% Temporary Dec-14 @ 06:00 - Dec-14 @ 21:00
Wind
210° at 25 knots
 Gusting to 38 knots
Becoming Dec-14 @ 10:00 - Dec-14 @ 14:00
Wind Visibility
210° at 18 knots 10,000+ meters
Clouds
  • Scattered at 1,200' AGL
Becoming Dec-14 @ 14:00 - Dec-15 @ 00:00
Wind Visibility
210° at 18 knots 5,005 meters
Clouds
  • Scattered at 600' AGL
  • Broken at 1,200' AGL
Conditions
  • Light Rain
  • Light Drizzle
  • Mist
Temporary Dec-14 @ 16:00 - Dec-15 @ 00:00
Clouds
  • Scattered at 200' AGL
  • Broken at 500' AGL
Conditions
  • Rain